sensor_id;sensor_type;location;lat;lon;timestamp;pressure;altitude;pressure_sealevel;temperature;humidity
65359;BME280;52491;45.900;6.346;2022-07-29T00:00:40;93744.91;;;27.97;30.72
65359;BME280;52491;45.900;6.346;2022-07-29T00:03:12;93744.09;;;27.97;30.70
65359;BME280;52491;45.900;6.346;2022-07-29T00:05:39;93749.47;;;27.97;30.58
65359;BME280;52491;45.900;6.346;2022-07-29T00:08:06;93745.19;;;27.96;30.42
65359;BME280;52491;45.900;6.346;2022-07-29T00:10:32;93745.19;;;27.96;30.48
65359;BME280;52491;45.900;6.346;2022-07-29T00:12:58;93740.13;;;27.94;30.43
65359;BME280;52491;45.900;6.346;2022-07-29T00:15:24;93737.44;;;27.94;30.47
65359;BME280;52491;45.900;6.346;2022-07-29T00:17:49;93747.38;;;27.94;30.35
65359;BME280;52491;45.900;6.346;2022-07-29T00:20:15;93743.88;;;27.93;30.53
65359;BME280;52491;45.900;6.346;2022-07-29T00:22:41;93748.47;;;27.93;30.33
65359;BME280;52491;45.900;6.346;2022-07-29T00:25:07;93740.41;;;27.93;30.26
65359;BME280;52491;45.900;6.346;2022-07-29T00:27:34;93749.53;;;27.92;30.43
65359;BME280;52491;45.900;6.346;2022-07-29T00:30:00;93743.38;;;27.91;30.46
65359;BME280;52491;45.900;6.346;2022-07-29T00:32:26;93746.06;;;27.91;30.18
65359;BME280;52491;45.900;6.346;2022-07-29T00:34:51;93743.66;;;27.89;30.21
65359;BME280;52491;45.900;6.346;2022-07-29T00:37:36;93740.47;;;27.87;30.35
65359;BME280;52491;45.900;6.346;2022-07-29T00:40:01;93734.03;;;27.88;30.13
65359;BME280;52491;45.900;6.346;2022-07-29T00:42:27;93740.97;;;27.89;30.40
65359;BME280;52491;45.900;6.346;2022-07-29T00:44:53;93740.97;;;27.89;30.34
65359;BME280;52491;45.900;6.346;2022-07-29T00:47:18;93736.19;;;27.86;30.30
65359;BME280;52491;45.900;6.346;2022-07-29T00:49:44;93743.44;;;27.86;30.63
65359;BME280;52491;45.900;6.346;2022-07-29T00:52:10;93740.75;;;27.86;30.39
65359;BME280;52491;45.900;6.346;2022-07-29T00:54:38;93738.38;;;27.84;30.39
65359;BME280;52491;45.900;6.346;2022-07-29T00:57:08;93753.63;;;27.84;30.36
65359;BME280;52491;45.900;6.346;2022-07-29T00:59:34;93755.03;;;27.81;30.25
65359;BME280;52491;45.900;6.346;2022-07-29T01:02:00;93759.28;;;27.82;30.55
65359;BME280;52491;45.900;6.346;2022-07-29T01:04:26;93759.28;;;27.82;30.33
65359;BME280;52491;45.900;6.346;2022-07-29T01:06:53;93761.97;;;27.82;30.42
65359;BME280;52491;45.900;6.346;2022-07-29T01:09:19;93758.78;;;27.80;30.41
65359;BME280;52491;45.900;6.346;2022-07-29T01:11:46;93755.81;;;27.82;30.30
65359;BME280;52491;45.900;6.346;2022-07-29T01:14:14;93748.06;;;27.80;30.47
65359;BME280;52491;45.900;6.346;2022-07-29T01:17:02;93744.03;;;27.78;30.45
65359;BME280;52491;45.900;6.346;2022-07-29T01:22:31;93744.03;;;27.78;30.27
65359;BME280;52491;45.900;6.346;2022-07-29T01:25:24;93739.00;;;27.76;30.22
65359;BME280;52491;45.900;6.346;2022-07-29T01:30:58;93727.47;;;27.76;30.48
65359;BME280;52491;45.900;6.346;2022-07-29T01:33:26;93725.06;;;27.74;30.39
65359;BME280;52491;45.900;6.346;2022-07-29T01:36:14;93736.59;;;27.75;30.30
65359;BME280;52491;45.900;6.346;2022-07-29T01:38:42;93737.69;;;27.74;30.46
65359;BME280;52491;45.900;6.346;2022-07-29T01:41:16;93735.50;;;27.76;30.52
65359;BME280;52491;45.900;6.346;2022-07-29T01:46:21;93739.56;;;27.73;30.21
65359;BME280;52491;45.900;6.346;2022-07-29T01:49:13;93737.16;;;27.72;30.45
65359;BME280;52491;45.900;6.346;2022-07-29T01:56:37;93734.22;;;27.73;30.52
65359;BME280;52491;45.900;6.346;2022-07-29T01:59:06;93742.81;;;27.70;30.46
65359;BME280;52491;45.900;6.346;2022-07-29T02:01:33;93740.13;;;27.70;30.50
65359;BME280;52491;45.900;6.346;2022-07-29T02:04:03;93739.84;;;27.72;30.64
65359;BME280;52491;45.900;6.346;2022-07-29T02:06:32;93737.47;;;27.70;30.37
65359;BME280;52491;45.900;6.346;2022-07-29T02:08:59;93740.13;;;27.70;30.53
65359;BME280;52491;45.900;6.346;2022-07-29T02:11:26;93742.31;;;27.68;30.43
65359;BME280;52491;45.900;6.346;2022-07-29T02:13:54;93745.78;;;27.68;30.45
65359;BME280;52491;45.900;6.346;2022-07-29T02:16:22;93749.25;;;27.69;30.26
65359;BME280;52491;45.900;6.346;2022-07-29T02:18:52;93741.78;;;27.66;30.47
65359;BME280;52491;45.900;6.346;2022-07-29T02:21:22;93746.88;;;27.67;30.45
65359;BME280;52491;45.900;6.346;2022-07-29T02:23:51;93743.38;;;27.67;30.38
65359;BME280;52491;45.900;6.346;2022-07-29T02:26:20;93750.13;;;27.64;30.39
65359;BME280;52491;45.900;6.346;2022-07-29T02:28:49;93737.78;;;27.63;30.47
65359;BME280;52491;45.900;6.346;2022-07-29T02:31:21;93741.25;;;27.64;30.39
65359;BME280;52491;45.900;6.346;2022-07-29T02:33:48;93737.78;;;27.63;30.42
65359;BME280;52491;45.900;6.346;2022-07-29T02:36:16;93732.44;;;27.63;30.51
65359;BME280;52491;45.900;6.346;2022-07-29T02:38:43;93739.69;;;27.63;30.45
65359;BME280;52491;45.900;6.346;2022-07-29T02:41:26;93743.44;;;27.62;30.21
65359;BME280;52491;45.900;6.346;2022-07-29T02:44:01;93739.94;;;27.61;30.57
65359;BME280;52491;45.900;6.346;2022-07-29T02:46:31;93735.41;;;27.62;30.36
65359;BME280;52491;45.900;6.346;2022-07-29T02:51:43;93738.38;;;27.60;30.30
65359;BME280;52491;45.900;6.346;2022-07-29T02:54:14;93736.78;;;27.59;30.42
65359;BME280;52491;45.900;6.346;2022-07-29T02:56:45;93740.88;;;27.52;30.42
65359;BME280;52491;45.900;6.346;2022-07-29T02:59:12;93741.34;;;27.59;30.68
65359;BME280;52491;45.900;6.346;2022-07-29T03:01:42;93742.41;;;27.58;30.47
65359;BME280;52491;45.900;6.346;2022-07-29T03:04:09;93731.19;;;27.56;30.46
65359;BME280;52491;45.900;6.346;2022-07-29T03:06:37;93729.59;;;27.55;30.55
65359;BME280;52491;45.900;6.346;2022-07-29T03:09:06;93730.38;;;27.55;30.55
65359;BME280;52491;45.900;6.346;2022-07-29T03:11:32;93729.59;;;27.55;30.34
65359;BME280;52491;45.900;6.346;2022-07-29T03:14:00;93724.25;;;27.55;30.37
65359;BME280;52491;45.900;6.346;2022-07-29T03:16:27;93725.59;;;27.52;30.39
65359;BME280;52491;45.900;6.346;2022-07-29T03:18:54;93727.50;;;27.52;30.42
65359;BME280;52491;45.900;6.346;2022-07-29T03:21:21;93730.16;;;27.52;30.28
65359;BME280;52491;45.900;6.346;2022-07-29T03:23:47;93733.13;;;27.50;30.75
65359;BME280;52491;45.900;6.346;2022-07-29T03:26:14;93726.69;;;27.51;30.49
65359;BME280;52491;45.900;6.346;2022-07-29T03:28:40;93735.53;;;27.52;30.76
65359;BME280;52491;45.900;6.346;2022-07-29T03:31:06;93735.25;;;27.53;30.72
65359;BME280;52491;45.900;6.346;2022-07-29T03:33:33;93738.72;;;27.54;31.02
65359;BME280;52491;45.900;6.346;2022-07-29T03:35:59;93744.06;;;27.54;30.94
65359;BME280;52491;45.900;6.346;2022-07-29T03:38:28;93748.06;;;27.56;30.87
65359;BME280;52491;45.900;6.346;2022-07-29T03:40:59;93755.28;;;27.56;30.88
65359;BME280;52491;45.900;6.346;2022-07-29T03:43:30;93755.81;;;27.58;30.97
65359;BME280;52491;45.900;6.346;2022-07-29T03:45:57;93755.00;;;27.57;30.86
65359;BME280;52491;45.900;6.346;2022-07-29T03:48:26;93747.78;;;27.58;30.96
65359;BME280;52491;45.900;6.346;2022-07-29T03:50:55;93750.16;;;27.59;31.07
65359;BME280;52491;45.900;6.346;2022-07-29T03:53:20;93746.69;;;27.59;30.63
65359;BME280;52491;45.900;6.346;2022-07-29T03:55:53;93745.88;;;27.58;30.96
65359;BME280;52491;45.900;6.346;2022-07-29T03:58:20;93741.84;;;27.61;30.85
65359;BME280;52491;45.900;6.346;2022-07-29T04:00:47;93733.31;;;27.59;30.86
65359;BME280;52491;45.900;6.346;2022-07-29T04:03:13;93736.78;;;27.59;31.03
65359;BME280;52491;45.900;6.346;2022-07-29T04:05:40;93745.59;;;27.60;30.97
65359;BME280;52491;45.900;6.346;2022-07-29T04:08:06;93753.66;;;27.60;31.29
65359;BME280;52491;45.900;6.346;2022-07-29T04:10:32;93751.75;;;27.60;31.22
65359;BME280;52491;45.900;6.346;2022-07-29T04:12:59;93755.22;;;27.61;31.34
65359;BME280;52491;45.900;6.346;2022-07-29T04:15:24;93762.19;;;27.62;31.33
65359;BME280;52491;45.900;6.346;2022-07-29T04:17:50;93762.19;;;27.62;31.11
65359;BME280;52491;45.900;6.346;2022-07-29T04:20:17;93763.00;;;27.62;31.11
65359;BME280;52491;45.900;6.346;2022-07-29T04:22:43;93763.78;;;27.63;31.29
65359;BME280;52491;45.900;6.346;2022-07-29T04:25:09;93770.72;;;27.64;31.28
65359;BME280;52491;45.900;6.346;2022-07-29T04:27:35;93765.38;;;27.64;31.42
65359;BME280;52491;45.900;6.346;2022-07-29T04:30:01;93759.78;;;27.60;31.32
65359;BME280;52491;45.900;6.346;2022-07-29T04:32:27;93776.06;;;27.64;31.53
65359;BME280;52491;45.900;6.346;2022-07-29T04:34:53;93776.91;;;27.64;31.36
65359;BME280;52491;45.900;6.346;2022-07-29T04:37:20;93772.59;;;27.63;31.37
65359;BME280;52491;45.900;6.346;2022-07-29T04:39:45;93771.81;;;27.63;31.18
65359;BME280;52491;45.900;6.346;2022-07-29T04:42:11;93774.50;;;27.63;31.40
65359;BME280;52491;45.900;6.346;2022-07-29T04:44:37;93780.66;;;27.63;31.43
65359;BME280;52491;45.900;6.346;2022-07-29T04:47:03;93783.63;;;27.62;31.28
65359;BME280;52491;45.900;6.346;2022-07-29T04:49:28;93792.44;;;27.62;31.54
65359;BME280;52491;45.900;6.346;2022-07-29T04:51:54;93794.34;;;27.62;31.33
65359;BME280;52491;45.900;6.346;2022-07-29T04:54:20;93791.94;;;27.60;31.65
65359;BME280;52491;45.900;6.346;2022-07-29T04:56:45;93789.78;;;27.62;31.40
65359;BME280;52491;45.900;6.346;2022-07-29T04:59:11;93795.13;;;27.62;31.50
65359;BME280;52491;45.900;6.346;2022-07-29T05:01:37;93795.13;;;27.62;31.65
65359;BME280;52491;45.900;6.346;2022-07-29T05:04:03;93795.13;;;27.62;31.43
65359;BME280;52491;45.900;6.346;2022-07-29T05:06:28;93791.66;;;27.62;31.70
65359;BME280;52491;45.900;6.346;2022-07-29T05:08:54;93792.72;;;27.61;31.61
65359;BME280;52491;45.900;6.346;2022-07-29T05:11:19;93798.59;;;27.63;31.70
65359;BME280;52491;45.900;6.346;2022-07-29T05:13:45;93795.13;;;27.62;31.49
65359;BME280;52491;45.900;6.346;2022-07-29T05:16:11;93786.78;;;27.64;31.83
65359;BME280;52491;45.900;6.346;2022-07-29T05:18:36;93786.78;;;27.64;31.56
65359;BME280;52491;45.900;6.346;2022-07-29T05:21:02;93783.31;;;27.63;31.50
65359;BME280;52491;45.900;6.346;2022-07-29T05:23:28;93793.75;;;27.65;31.61
65359;BME280;52491;45.900;6.346;2022-07-29T05:25:53;93792.97;;;27.64;31.44
65359;BME280;52491;45.900;6.346;2022-07-29T05:28:19;93790.28;;;27.64;31.59
65359;BME280;52491;45.900;6.346;2022-07-29T05:30:44;93787.63;;;27.64;31.71
65359;BME280;52491;45.900;6.346;2022-07-29T05:33:10;93783.84;;;27.65;31.46
65359;BME280;52491;45.900;6.346;2022-07-29T05:35:36;93795.34;;;27.66;31.65
65359;BME280;52491;45.900;6.346;2022-07-29T05:38:03;93804.19;;;27.66;31.62
65359;BME280;52491;45.900;6.346;2022-07-29T05:40:29;93814.09;;;27.66;31.73
65359;BME280;52491;45.900;6.346;2022-07-29T05:42:55;93822.94;;;27.66;31.63
65359;BME280;52491;45.900;6.346;2022-07-29T05:45:21;93818.66;;;27.65;31.81
65359;BME280;52491;45.900;6.346;2022-07-29T05:47:46;93821.34;;;27.65;31.90
65359;BME280;52491;45.900;6.346;2022-07-29T05:50:12;93826.69;;;27.65;31.77
65359;BME280;52491;45.900;6.346;2022-07-29T05:52:38;93829.38;;;27.65;31.71
65359;BME280;52491;45.900;6.346;2022-07-29T05:55:04;93832.06;;;27.65;31.75
65359;BME280;52491;45.900;6.346;2022-07-29T05:57:31;93832.84;;;27.66;32.00
65359;BME280;52491;45.900;6.346;2022-07-29T05:59:56;93838.19;;;27.66;31.70
65359;BME280;52491;45.900;6.346;2022-07-29T06:02:22;93838.19;;;27.66;31.79
65359;BME280;52491;45.900;6.346;2022-07-29T06:04:48;93843.56;;;27.66;32.01
65359;BME280;52491;45.900;6.346;2022-07-29T06:07:14;93833.63;;;27.66;31.75
65359;BME280;52491;45.900;6.346;2022-07-29T06:09:41;93834.44;;;27.67;31.97
65359;BME280;52491;45.900;6.346;2022-07-29T06:12:07;93847.81;;;27.67;31.75
65359;BME280;52491;45.900;6.346;2022-07-29T06:14:33;93845.16;;;27.67;31.97
65359;BME280;52491;45.900;6.346;2022-07-29T06:16:59;93837.09;;;27.67;31.87
65359;BME280;52491;45.900;6.346;2022-07-29T06:19:24;93833.38;;;27.68;31.80
65359;BME280;52491;45.900;6.346;2022-07-29T06:21:50;93826.13;;;27.68;32.03
65359;BME280;52491;45.900;6.346;2022-07-29T06:24:16;93823.44;;;27.68;31.73
65359;BME280;52491;45.900;6.346;2022-07-29T06:26:42;93827.22;;;27.67;31.82
65359;BME280;52491;45.900;6.346;2022-07-29T06:29:08;93832.28;;;27.69;31.98
65359;BME280;52491;45.900;6.346;2022-07-29T06:31:36;93828.81;;;27.68;31.84
65359;BME280;52491;45.900;6.346;2022-07-29T06:34:02;93825.84;;;27.70;31.80
65359;BME280;52491;45.900;6.346;2022-07-29T06:36:28;93817.00;;;27.70;32.13
65359;BME280;52491;45.900;6.346;2022-07-29T06:38:54;93823.97;;;27.71;32.10
65359;BME280;52491;45.900;6.346;2022-07-29T06:41:19;93815.13;;;27.70;31.88
65359;BME280;52491;45.900;6.346;2022-07-29T06:43:45;93824.75;;;27.71;31.95
65359;BME280;52491;45.900;6.346;2022-07-29T06:46:15;93821.28;;;27.71;31.92
65359;BME280;52491;45.900;6.346;2022-07-29T06:48:43;93828.53;;;27.70;32.18
65359;BME280;52491;45.900;6.346;2022-07-29T06:51:10;93834.69;;;27.71;31.90
65359;BME280;52491;45.900;6.346;2022-07-29T06:53:37;93829.31;;;27.71;31.96
65359;BME280;52491;45.900;6.346;2022-07-29T06:56:04;93841.63;;;27.72;32.15
65359;BME280;52491;45.900;6.346;2022-07-29T06:58:31;93838.94;;;27.72;32.13
65359;BME280;52491;45.900;6.346;2022-07-29T07:00:57;93835.47;;;27.71;32.27
65359;BME280;52491;45.900;6.346;2022-07-29T07:03:24;93840.84;;;27.71;32.13
65359;BME280;52491;45.900;6.346;2022-07-29T07:05:52;93847.50;;;27.74;31.90
65359;BME280;52491;45.900;6.346;2022-07-29T07:08:17;93848.56;;;27.73;32.08
65359;BME280;52491;45.900;6.346;2022-07-29T07:10:44;93849.66;;;27.72;32.13
65359;BME280;52491;45.900;6.346;2022-07-29T07:13:10;93859.59;;;27.71;32.07
65359;BME280;52491;45.900;6.346;2022-07-29T07:15:36;93887.94;;;27.72;32.21
65359;BME280;52491;45.900;6.346;2022-07-29T07:18:03;93901.34;;;27.72;32.18
65359;BME280;52491;45.900;6.346;2022-07-29T07:20:28;93918.22;;;27.73;32.28
65359;BME280;52491;45.900;6.346;2022-07-29T07:22:54;93920.09;;;27.72;32.38
65359;BME280;52491;45.900;6.346;2022-07-29T07:25:20;93934.28;;;27.73;32.23
65359;BME280;52491;45.900;6.346;2022-07-29T07:27:45;93946.88;;;27.72;32.21
65359;BME280;52491;45.900;6.346;2022-07-29T07:30:11;93949.56;;;27.72;32.40
65359;BME280;52491;45.900;6.346;2022-07-29T07:32:37;93943.41;;;27.72;32.50
65359;BME280;52491;45.900;6.346;2022-07-29T07:35:04;93939.66;;;27.73;32.33
65359;BME280;52491;45.900;6.346;2022-07-29T07:37:31;93923.56;;;27.73;32.43
65359;BME280;52491;45.900;6.346;2022-07-29T07:39:57;93928.13;;;27.72;32.23
65359;BME280;52491;45.900;6.346;2022-07-29T07:42:23;93931.59;;;27.73;32.38
65359;BME280;52491;45.900;6.346;2022-07-29T07:44:49;93933.22;;;27.74;32.54
65359;BME280;52491;45.900;6.346;2022-07-29T07:47:15;93945.53;;;27.75;32.59
65359;BME280;52491;45.900;6.346;2022-07-29T07:49:48;93947.69;;;27.73;32.40
65359;BME280;52491;45.900;6.346;2022-07-29T07:52:18;93950.88;;;27.75;32.37
65359;BME280;52491;45.900;6.346;2022-07-29T07:54:44;93942.06;;;27.74;32.49
65359;BME280;52491;45.900;6.346;2022-07-29T07:57:14;93939.38;;;27.74;32.64
65359;BME280;52491;45.900;6.346;2022-07-29T07:59:41;93934.81;;;27.75;32.63
65359;BME280;52491;45.900;6.346;2022-07-29T08:02:07;93926.78;;;27.75;32.50
65359;BME280;52491;45.900;6.346;2022-07-29T08:04:33;93925.66;;;27.81;32.36
65359;BME280;52491;45.900;6.346;2022-07-29T08:06:59;93921.94;;;27.82;32.51
65359;BME280;52491;45.900;6.346;2022-07-29T08:09:27;93928.34;;;27.81;32.36
65359;BME280;52491;45.900;6.346;2022-07-29T08:11:52;93931.84;;;27.81;32.53
65359;BME280;52491;45.900;6.346;2022-07-29T08:14:18;93935.59;;;27.80;32.54
65359;BME280;52491;45.900;6.346;2022-07-29T08:16:44;93940.94;;;27.80;32.47
65359;BME280;52491;45.900;6.346;2022-07-29T08:19:10;93950.59;;;27.81;32.70
65359;BME280;52491;45.900;6.346;2022-07-29T08:21:36;93948.19;;;27.80;32.64
65359;BME280;52491;45.900;6.346;2022-07-29T08:24:02;93950.06;;;27.79;32.54
65359;BME280;52491;45.900;6.346;2022-07-29T08:26:46;93954.63;;;27.79;32.64
65359;BME280;52491;45.900;6.346;2022-07-29T08:29:12;93965.31;;;27.79;32.60
65359;BME280;52491;45.900;6.346;2022-07-29T08:31:38;93970.69;;;27.79;32.92
65359;BME280;52491;45.900;6.346;2022-07-29T08:34:05;93988.38;;;27.80;32.79
65359;BME280;52491;45.900;6.346;2022-07-29T08:36:31;93981.41;;;27.79;32.69
65359;BME280;52491;45.900;6.346;2022-07-29T08:38:58;93979.56;;;27.79;32.88
65359;BME280;52491;45.900;6.346;2022-07-29T08:41:25;93989.44;;;27.79;32.80
65359;BME280;52491;45.900;6.346;2022-07-29T08:43:51;93987.59;;;27.79;33.10
65359;BME280;52491;45.900;6.346;2022-07-29T08:46:18;93970.94;;;27.77;33.13
65359;BME280;52491;45.900;6.346;2022-07-29T08:48:44;93974.19;;;27.79;33.06
65359;BME280;52491;45.900;6.346;2022-07-29T08:51:17;93961.03;;;27.78;32.98
65359;BME280;52491;45.900;6.346;2022-07-29T08:53:44;93963.47;;;27.79;33.06
65359;BME280;52491;45.900;6.346;2022-07-29T08:56:15;93959.97;;;27.79;33.03
65359;BME280;52491;45.900;6.346;2022-07-29T08:58:45;93955.44;;;27.79;32.94
65359;BME280;52491;45.900;6.346;2022-07-29T09:01:13;93942.03;;;27.79;32.99
65359;BME280;52491;45.900;6.346;2022-07-29T09:03:44;93948.44;;;27.78;33.30
65359;BME280;52491;45.900;6.346;2022-07-29T09:06:13;93949.25;;;27.79;33.00
65359;BME280;52491;45.900;6.346;2022-07-29T09:08:39;93945.50;;;27.80;33.14
65359;BME280;52491;45.900;6.346;2022-07-29T09:11:06;93953.78;;;27.78;33.19
65359;BME280;52491;45.900;6.346;2022-07-29T09:13:33;93951.94;;;27.79;33.03
65359;BME280;52491;45.900;6.346;2022-07-29T09:15:59;93939.38;;;27.79;33.00
65359;BME280;52491;45.900;6.346;2022-07-29T09:18:44;93943.06;;;27.78;33.28
65359;BME280;52491;45.900;6.346;2022-07-29T09:21:14;93944.72;;;27.79;33.32
65359;BME280;52491;45.900;6.346;2022-07-29T09:24:09;93946.31;;;27.80;33.05
65359;BME280;52491;45.900;6.346;2022-07-29T09:26:43;93939.88;;;27.81;33.23
65359;BME280;52491;45.900;6.346;2022-07-29T09:29:16;93942.56;;;27.81;33.28
65359;BME280;52491;45.900;6.346;2022-07-29T09:31:44;93940.38;;;27.83;33.17
65359;BME280;52491;45.900;6.346;2022-07-29T09:34:11;93929.66;;;27.83;33.28
65359;BME280;52491;45.900;6.346;2022-07-29T09:36:48;93911.75;;;27.79;33.07
65359;BME280;52491;45.900;6.346;2022-07-29T09:39:15;93910.69;;;27.80;33.05
65359;BME280;52491;45.900;6.346;2022-07-29T09:41:54;93920.31;;;27.81;33.28
65359;BME280;52491;45.900;6.346;2022-07-29T09:44:21;93924.09;;;27.80;33.27
65359;BME280;52491;45.900;6.346;2022-07-29T09:47:13;93926.22;;;27.78;33.14
65359;BME280;52491;45.900;6.346;2022-07-29T09:49:59;93940.38;;;27.83;33.23
65359;BME280;52491;45.900;6.346;2022-07-29T09:52:27;93945.25;;;27.81;33.53
65359;BME280;52491;45.900;6.346;2022-07-29T09:54:53;93948.97;;;27.80;33.37
65359;BME280;52491;45.900;6.346;2022-07-29T09:57:29;93957.03;;;27.80;33.44
65359;BME280;52491;45.900;6.346;2022-07-29T10:02:35;93968.53;;;27.81;33.28
65359;BME280;52491;45.900;6.346;2022-07-29T10:05:03;93974.72;;;27.81;33.35
65359;BME280;52491;45.900;6.346;2022-07-29T10:07:51;93981.13;;;27.80;33.21
65359;BME280;52491;45.900;6.346;2022-07-29T10:10:28;93985.44;;;27.81;33.49
65359;BME280;52491;45.900;6.346;2022-07-29T10:12:59;93996.16;;;27.81;33.57
65359;BME280;52491;45.900;6.346;2022-07-29T10:15:27;94006.88;;;27.81;33.65
65359;BME280;52491;45.900;6.346;2022-07-29T10:17:55;94020.25;;;27.81;33.44
65359;BME280;52491;45.900;6.346;2022-07-29T10:20:21;94019.16;;;27.82;33.53
65359;BME280;52491;45.900;6.346;2022-07-29T10:22:48;94021.84;;;27.82;33.32
65359;BME280;52491;45.900;6.346;2022-07-29T10:25:15;94033.03;;;27.89;33.42
65359;BME280;52491;45.900;6.346;2022-07-29T10:27:42;94041.31;;;27.93;33.51
65359;BME280;52491;45.900;6.346;2022-07-29T10:30:10;94042.13;;;27.94;33.20
65359;BME280;52491;45.900;6.346;2022-07-29T10:33:09;94044.28;;;27.92;33.37
65359;BME280;52491;45.900;6.346;2022-07-29T10:46:24;94083.19;;;27.84;33.71
65359;BME280;52491;45.900;6.346;2022-07-29T10:49:22;94082.94;;;27.80;33.68
65359;BME280;52491;45.900;6.346;2022-07-29T10:54:16;94076.16;;;27.93;33.45
65359;BME280;52491;45.900;6.346;2022-07-29T10:56:42;94081.22;;;27.95;33.66
65359;BME280;52491;45.900;6.346;2022-07-29T11:01:47;94075.06;;;27.94;33.46
65359;BME280;52491;45.900;6.346;2022-07-29T11:04:13;94087.44;;;27.90;33.92
65359;BME280;52491;45.900;6.346;2022-07-29T11:07:13;94085.34;;;27.82;33.82
65359;BME280;52491;45.900;6.346;2022-07-29T11:09:41;94095.78;;;27.83;33.98
65359;BME280;52491;45.900;6.346;2022-07-29T11:15:05;94093.41;;;27.82;33.84
65359;BME280;52491;45.900;6.346;2022-07-29T11:23:01;94097.97;;;27.81;34.31
65359;BME280;52491;45.900;6.346;2022-07-29T11:25:27;94096.06;;;27.82;34.42
65359;BME280;52491;45.900;6.346;2022-07-29T11:27:54;94099.53;;;27.82;34.52
65359;BME280;52491;45.900;6.346;2022-07-29T11:31:06;94096.59;;;27.79;34.44
65359;BME280;52491;45.900;6.346;2022-07-29T11:33:35;94100.34;;;27.83;34.57
65359;BME280;52491;45.900;6.346;2022-07-29T11:36:15;94102.50;;;27.81;34.60
65359;BME280;52491;45.900;6.346;2022-07-29T11:38:43;94101.44;;;27.82;34.73
65359;BME280;52491;45.900;6.346;2022-07-29T11:41:23;94100.63;;;27.81;34.97
65359;BME280;52491;45.900;6.346;2022-07-29T11:43:56;94099.81;;;27.81;34.87
65359;BME280;52491;45.900;6.346;2022-07-29T11:49:19;94101.44;;;27.82;34.75
65359;BME280;52491;45.900;6.346;2022-07-29T11:51:53;94105.69;;;27.83;34.78
65359;BME280;52491;45.900;6.346;2022-07-29T11:54:31;94106.00;;;27.81;34.65
65359;BME280;52491;45.900;6.346;2022-07-29T11:56:58;94110.25;;;27.82;34.86
65359;BME280;52491;45.900;6.346;2022-07-29T11:59:24;94101.44;;;27.82;34.74
65359;BME280;52491;45.900;6.346;2022-07-29T12:01:54;94098.75;;;27.82;34.80
65359;BME280;52491;45.900;6.346;2022-07-29T12:04:20;94102.22;;;27.82;34.96
65359;BME280;52491;45.900;6.346;2022-07-29T12:06:50;94102.22;;;27.82;34.74
65359;BME280;52491;45.900;6.346;2022-07-29T12:09:17;94099.25;;;27.84;34.66
65359;BME280;52491;45.900;6.346;2022-07-29T12:11:43;94106.50;;;27.83;34.67
65359;BME280;52491;45.900;6.346;2022-07-29T12:14:08;94099.25;;;27.84;35.04
65359;BME280;52491;45.900;6.346;2022-07-29T12:16:37;94101.13;;;27.83;34.90
65359;BME280;52491;45.900;6.346;2022-07-29T12:19:03;94091.22;;;27.84;35.33
65359;BME280;52491;45.900;6.346;2022-07-29T12:21:43;94094.97;;;27.83;35.51
65359;BME280;52491;45.900;6.346;2022-07-29T12:24:09;94086.16;;;27.82;35.30
65359;BME280;52491;45.900;6.346;2022-07-29T12:26:35;94091.22;;;27.84;35.38
65359;BME280;52491;45.900;6.346;2022-07-29T12:29:02;94084.00;;;27.84;35.37
65359;BME280;52491;45.900;6.346;2022-07-29T12:31:27;94084.78;;;27.85;35.39
65359;BME280;52491;45.900;6.346;2022-07-29T12:33:53;94084.00;;;27.84;35.32
65359;BME280;52491;45.900;6.346;2022-07-29T12:36:19;94079.44;;;27.85;35.71
65359;BME280;52491;45.900;6.346;2022-07-29T12:38:45;94079.69;;;27.83;35.77
65359;BME280;52491;45.900;6.346;2022-07-29T12:41:11;94074.88;;;27.85;35.85
65359;BME280;52491;45.900;6.346;2022-07-29T12:43:37;94083.19;;;27.84;35.63
65359;BME280;52491;45.900;6.346;2022-07-29T12:46:14;94068.97;;;27.83;35.67
65359;BME280;52491;45.900;6.346;2022-07-29T12:48:41;94063.63;;;27.83;35.77
65359;BME280;52491;45.900;6.346;2022-07-29T12:51:08;94068.97;;;27.83;35.73
65359;BME280;52491;45.900;6.346;2022-07-29T12:53:36;94073.56;;;27.83;35.66
65359;BME280;52491;45.900;6.346;2022-07-29T12:56:03;94067.41;;;27.82;35.66
65359;BME280;52491;45.900;6.346;2022-07-29T12:58:34;94067.09;;;27.84;35.59
65359;BME280;52491;45.900;6.346;2022-07-29T13:01:17;94069.28;;;27.82;35.83
65359;BME280;52491;45.900;6.346;2022-07-29T13:03:53;94060.94;;;27.83;35.94
65359;BME280;52491;45.900;6.346;2022-07-29T13:06:41;94069.53;;;27.80;35.67
65359;BME280;52491;45.900;6.346;2022-07-29T13:09:12;94067.94;;;27.84;35.55
65359;BME280;52491;45.900;6.346;2022-07-29T13:11:49;94075.97;;;27.84;35.65
65359;BME280;52491;45.900;6.346;2022-07-29T13:14:36;94075.44;;;27.82;35.49
65359;BME280;52491;45.900;6.346;2022-07-29T13:17:13;94070.59;;;27.84;35.46
65359;BME280;52491;45.900;6.346;2022-07-29T13:19:52;94078.63;;;27.84;35.55
65359;BME280;52491;45.900;6.346;2022-07-29T13:22:22;94081.31;;;27.84;35.42
65359;BME280;52491;45.900;6.346;2022-07-29T13:25:08;94076.75;;;27.85;35.61
65359;BME280;52491;45.900;6.346;2022-07-29T13:27:36;94063.38;;;27.85;35.56
65359;BME280;52491;45.900;6.346;2022-07-29T13:30:08;94070.31;;;27.86;35.58
65359;BME280;52491;45.900;6.346;2022-07-29T13:32:34;94069.50;;;27.85;35.42
65359;BME280;52491;45.900;6.346;2022-07-29T13:35:03;94075.66;;;27.86;35.49
65359;BME280;52491;45.900;6.346;2022-07-29T13:37:29;94061.47;;;27.85;35.66
65359;BME280;52491;45.900;6.346;2022-07-29T13:39:56;94062.28;;;27.86;35.74
65359;BME280;52491;45.900;6.346;2022-07-29T13:42:22;94055.84;;;27.87;35.37
65359;BME280;52491;45.900;6.346;2022-07-29T13:44:48;94058.53;;;27.87;35.26
65359;BME280;52491;45.900;6.346;2022-07-29T13:47:16;94054.75;;;27.88;35.52
65359;BME280;52491;45.900;6.346;2022-07-29T13:49:42;94054.75;;;27.88;35.26
65359;BME280;52491;45.900;6.346;2022-07-29T13:52:07;94052.88;;;27.88;35.27
65359;BME280;52491;45.900;6.346;2022-07-29T13:54:33;94046.44;;;27.89;35.25